Time;durP1;ratioP1;P1;durP2;ratioP2;P2;SDS_P1;SDS_P2;PMS_P1;PMS_P2;Temp;Humidity;BMP_temperature;BMP_pressure;BME280_temperature;BME280_humidity;BME280_pressure;Samples;Min_cycle;Max_cycle;Signal;HPM_P1;HPM_P2
2021/09/23 05:47:10;;;;;;;96.33;53.73;;;;;;;10.45;100.00;101814.00;2617210;31;20031;-78
2021/09/23 05:49:43;;;;;;;96.93;54.37;;;;;;;10.48;100.00;101811.06;2615697;36;20303;-78
2021/09/23 05:52:20;;;;;;;104.82;56.40;;;;;;;10.53;100.00;101817.00;2616741;36;20299;-78
2021/09/23 05:54:49;;;;;;;96.25;54.38;;;;;;;10.59;100.00;101826.47;2642130;36;20018;-78
2021/09/23 05:57:23;;;;;;;100.85;55.45;;;;;;;10.64;100.00;101822.44;2616512;36;20057;-76
2021/09/23 06:03:12;;;;;;;110.38;57.85;;;;;;;10.78;100.00;101812.50;2615178;36;20102;-77
2021/09/23 06:05:58;;;;;;;117.32;58.38;;;;;;;10.90;100.00;101816.97;2616127;36;20030;-77
2021/09/23 06:08:27;;;;;;;96.03;53.25;;;;;;;10.90;100.00;101816.13;2617729;31;20027;-78
2021/09/23 06:10:55;;;;;;;123.20;64.13;;;;;;;11.01;100.00;101805.38;2617377;36;20023;-77
2021/09/23 06:13:35;;;;;;;105.20;57.58;;;;;;;11.09;100.00;101794.88;2617348;36;20068;-78
2021/09/23 06:16:13;;;;;;;111.65;58.50;;;;;;;11.20;100.00;101792.25;2617647;36;20574;-77
2021/09/23 06:18:41;;;;;;;114.35;61.70;;;;;;;11.35;100.00;101792.00;2616942;36;20090;-77
2021/09/23 06:21:10;;;;;;;111.88;61.75;;;;;;;11.48;100.00;101791.94;2617687;36;20042;-78
2021/09/23 06:23:46;;;;;;;113.15;60.03;;;;;;;11.57;100.00;101784.00;2617660;36;20086;-78
2021/09/23 06:29:24;;;;;;;102.38;58.80;;;;;;;11.90;100.00;101789.56;2616924;36;20029;-77
2021/09/23 06:31:52;;;;;;;97.07;57.67;;;;;;;12.08;100.00;101792.63;2617120;36;20493;-77
2021/09/23 08:31:28;;;;;;;35.70;23.33;;;;;;;15.49;100.00;101700.56;2613163;54;20042;-78
2021/09/23 08:33:57;;;;;;;33.78;22.45;;;;;;;15.46;100.00;101713.56;2615565;31;20057;-77
2021/09/23 08:36:25;;;;;;;41.13;23.65;;;;;;;15.58;100.00;101715.09;2615623;36;20034;-77
2021/09/23 08:38:54;;;;;;;35.25;21.65;;;;;;;15.66;100.00;101715.19;2615716;36;20041;-80
2021/09/23 08:41:22;;;;;;;34.93;23.20;;;;;;;15.66;100.00;101709.78;2615291;36;20055;-76
2021/09/23 08:43:50;;;;;;;37.25;23.88;;;;;;;15.75;100.00;101708.03;2615399;36;20323;-76
2021/09/23 08:46:20;;;;;;;34.50;23.75;;;;;;;15.75;100.00;101695.31;2615349;36;20143;-76
2021/09/23 08:48:52;;;;;;;36.83;23.25;;;;;;;15.76;100.00;101696.16;2615116;36;20170;-77
2021/09/23 08:51:22;;;;;;;37.83;23.25;;;;;;;15.91;100.00;101693.84;2615387;36;20068;-76
2021/09/23 08:53:50;;;;;;;38.03;23.90;;;;;;;15.88;100.00;101699.56;2615232;36;20042;-76
2021/09/23 08:56:19;;;;;;;35.50;23.93;;;;;;;15.81;100.00;101699.34;2615101;36;20065;-77
2021/09/23 08:58:47;;;;;;;35.83;24.13;;;;;;;15.95;100.00;101700.69;2615225;36;20034;-76
2021/09/23 09:01:18;;;;;;;31.98;21.98;;;;;;;16.25;100.00;101691.38;2614667;36;20071;-76
2021/09/23 09:03:47;;;;;;;34.03;22.95;;;;;;;16.54;100.00;101694.88;2615607;36;20394;-76
2021/09/23 09:06:18;;;;;;;35.20;20.73;;;;;;;16.83;100.00;101683.75;2615161;36;20444;-77
2021/09/23 09:08:46;;;;;;;29.77;19.85;;;;;;;17.28;100.00;101679.19;2615390;36;20061;-77
2021/09/23 09:11:16;;;;;;;25.27;18.07;;;;;;;17.22;100.00;101688.00;2614879;36;20093;-76
2021/09/23 09:13:45;;;;;;;26.70;18.20;;;;;;;17.37;100.00;101680.09;2615026;36;20567;-77
2021/09/23 09:16:16;;;;;;;26.15;17.90;;;;;;;17.60;100.00;101672.22;2614902;36;20046;-77
2021/09/23 09:18:47;;;;;;;25.40;17.85;;;;;;;17.44;100.00;101670.28;2614759;36;20061;-76
2021/09/23 09:21:20;;;;;;;22.60;15.13;;;;;;;17.64;100.00;101679.06;2614946;36;20058;-76
2021/09/23 09:23:51;;;;;;;23.48;15.60;;;;;;;17.59;100.00;101676.81;2615191;36;20063;-76
2021/09/23 09:26:28;;;;;;;22.42;15.50;;;;;;;17.62;100.00;101670.19;2615091;36;20074;-76
2021/09/23 09:29:00;;;;;;;19.95;12.10;;;;;;;17.52;100.00;101667.59;2614955;36;20635;-77
2021/09/23 09:31:29;;;;;;;14.93;9.73;;;;;;;17.51;100.00;101679.50;2614715;36;20629;-76
2021/09/23 09:34:02;;;;;;;10.18;7.15;;;;;;;17.63;100.00;101678.19;2614680;36;20560;-76
2021/09/23 09:36:35;;;;;;;11.82;5.07;;;;;;;17.67;100.00;101676.00;2615060;36;20560;-75
2021/09/23 09:39:07;;;;;;;9.20;4.43;;;;;;;17.49;100.00;101679.66;2615206;36;20034;-76
2021/09/23 09:41:39;;;;;;;6.38;3.40;;;;;;;17.51;100.00;101671.34;2615013;36;20160;-75
2021/09/23 09:44:11;;;;;;;5.85;3.30;;;;;;;17.46;100.00;101668.22;2614862;36;20030;-75
2021/09/23 09:46:46;;;;;;;9.43;3.33;;;;;;;17.52;100.00;101682.06;2614697;36;20038;-77
2021/09/23 09:49:15;;;;;;;7.97;4.00;;;;;;;17.67;100.00;101682.28;2614544;36;20031;-76
2021/09/23 09:51:47;;;;;;;8.02;3.20;;;;;;;17.73;100.00;101680.78;2615848;31;20034;-75
2021/09/23 09:54:17;;;;;;;6.75;2.95;;;;;;;17.58;100.00;101666.06;2615147;31;20030;-75
2021/09/23 09:56:47;;;;;;;10.98;3.30;;;;;;;17.72;100.00;101680.97;2614994;31;20047;-75
2021/09/23 09:59:17;;;;;;;7.75;3.30;;;;;;;17.75;100.00;101686.91;2614048;36;20619;-75
2021/09/23 10:01:47;;;;;;;9.27;3.40;;;;;;;17.60;100.00;101678.50;2614667;36;20126;-75
2021/09/23 10:04:17;;;;;;;8.60;2.95;;;;;;;17.50;100.00;101686.81;2614351;36;20171;-76
2021/09/23 10:06:48;;;;;;;4.55;2.72;;;;;;;17.29;100.00;101683.63;2615043;36;20121;-77
2021/09/23 10:09:19;;;;;;;7.05;2.78;;;;;;;17.16;100.00;101694.91;2614738;36;20061;-76
2021/09/23 10:11:49;;;;;;;5.05;2.90;;;;;;;17.12;100.00;101675.34;2614838;36;20047;-74
2021/09/23 10:14:22;;;;;;;9.27;3.17;;;;;;;17.19;100.00;101678.28;2616095;36;20536;-75
2021/09/23 10:16:52;;;;;;;5.70;3.15;;;;;;;17.22;100.00;101668.94;2615608;36;20042;-75
2021/09/23 10:19:21;;;;;;;8.88;2.90;;;;;;;17.28;100.00;101660.13;2616112;31;20511;-75
2021/09/23 10:21:52;;;;;;;;;;;;;;;17.39;100.00;101654.44;2616064;36;20050;-76
2021/09/23 10:24:21;;;;;;;10.07;3.30;;;;;;;17.46;100.00;101660.94;2615174;36;20051;-77
2021/09/23 10:26:53;;;;;;;8.70;2.80;;;;;;;17.67;100.00;101663.25;2615576;36;20068;-75
2021/09/23 10:29:23;;;;;;;6.55;2.80;;;;;;;18.06;100.00;101648.25;2615368;36;20639;-77
2021/09/23 10:31:59;;;;;;;7.30;2.90;;;;;;;18.25;100.00;101647.09;2615475;31;20662;-77
2021/09/23 10:34:27;;;;;;;5.80;2.95;;;;;;;18.61;100.00;101652.28;2615901;31;20569;-77
2021/09/23 10:37:00;;;;;;;6.28;3.15;;;;;;;18.65;100.00;101647.31;2615763;36;20040;-76
2021/09/23 10:39:32;;;;;;;5.55;2.78;;;;;;;18.84;100.00;101651.56;2615385;36;20038;-77
2021/09/23 10:42:37;;;;;;;5.70;3.20;;;;;;;19.07;100.00;101644.41;2615008;36;20035;-77
2021/09/23 10:51:33;;;;;;;7.22;2.65;;;;;;;19.34;100.00;101647.75;2614938;36;20042;-75
2021/09/23 10:54:07;;;;;;;13.98;3.08;;;;;;;19.32;100.00;101640.81;2614680;36;20130;-77
2021/09/23 10:56:36;;;;;;;6.32;2.17;;;;;;;19.19;100.00;101636.72;2632902;36;20035;-76
2021/09/23 10:59:06;;;;;;;5.15;2.67;;;;;;;18.84;100.00;101625.16;2613744;36;20034;-76
2021/09/23 11:01:36;;;;;;;6.38;2.58;;;;;;;19.24;100.00;101619.81;2614574;36;20548;-75
2021/09/23 11:04:05;;;;;;;8.10;2.45;;;;;;;19.33;100.00;101612.47;2614152;36;20038;-76
2021/09/23 11:06:35;;;;;;;8.43;2.47;;;;;;;19.21;100.00;101612.84;2614781;36;20090;-77
2021/09/23 11:09:23;;;;;;;4.50;1.80;;;;;;;19.17;100.00;101603.31;2615157;36;20034;-74
2021/09/23 11:11:53;;;;;;;5.28;2.15;;;;;;;19.14;100.00;101608.25;2615532;36;20111;-77
2021/09/23 11:14:23;;;;;;;7.65;2.60;;;;;;;19.24;100.00;101604.31;2616192;31;20538;-76
2021/09/23 11:16:54;;;;;;;8.40;2.75;;;;;;;19.41;100.00;101604.25;2616257;31;20533;-75
2021/09/23 11:19:25;;;;;;;4.22;2.45;;;;;;;19.47;100.00;101602.69;2615662;36;20044;-76
2021/09/23 11:21:56;;;;;;;5.70;2.28;;;;;;;19.64;100.00;101598.88;2615894;36;20058;-75
2021/09/23 11:24:29;;;;;;;8.88;2.50;;;;;;;19.40;100.00;101599.81;2615732;31;20598;-76
2021/09/23 11:26:57;;;;;;;4.88;2.28;;;;;;;19.80;100.00;101587.03;2616146;36;20034;-76
2021/09/23 11:29:26;;;;;;;7.65;2.83;;;;;;;19.46;100.00;101598.25;2615703;36;20030;-76
2021/09/23 11:31:56;;;;;;;5.63;2.30;;;;;;;19.89;100.00;101583.22;2615288;36;20539;-76
2021/09/23 11:34:33;;;;;;;13.60;3.97;;;;;;;19.57;100.00;101582.34;2615168;36;20034;-77
2021/09/23 11:37:01;;;;;;;9.13;2.20;;;;;;;20.04;100.00;101582.47;2616299;36;20051;-77
2021/09/23 11:39:32;;;;;;;5.35;2.38;;;;;;;19.97;100.00;101584.22;2615011;36;20038;-75
2021/09/23 11:42:14;;;;;;;3.80;1.52;;;;;;;19.47;100.00;101587.16;2615723;36;20063;-76
2021/09/23 11:44:45;;;;;;;7.63;1.75;;;;;;;19.10;100.00;101590.53;2615472;36;20030;-74
2021/09/23 11:47:14;;;;;;;4.60;2.00;;;;;;;18.84;100.00;101589.69;2615616;36;20041;-75
2021/09/23 11:52:13;;;;;;;5.32;2.45;;;;;;;18.87;100.00;101591.25;2615601;36;20133;-77
2021/09/23 11:54:44;;;;;;;3.40;1.57;;;;;;;18.62;100.00;101579.50;2616594;31;20067;-76
2021/09/23 11:57:25;;;;;;;6.43;1.83;;;;;;;18.84;100.00;101580.66;2616482;36;20034;-76
2021/09/23 11:59:56;;;;;;;4.03;1.63;;;;;;;18.86;100.00;101576.78;2615890;36;20030;-76
2021/09/23 12:02:24;;;;;;;6.97;2.15;;;;;;;18.82;100.00;101594.47;2615807;36;20483;-76
2021/09/23 12:04:56;;;;;;;5.18;2.15;;;;;;;18.88;100.00;101609.34;2614593;36;20436;-75
2021/09/23 12:07:26;;;;;;;8.10;3.17;;;;;;;18.69;100.00;101594.16;2615662;36;20042;-75
2021/09/23 12:10:11;;;;;;;6.07;2.33;;;;;;;18.46;100.00;101594.84;2615867;36;20034;-76
2021/09/23 12:12:39;;;;;;;6.57;2.42;;;;;;;18.49;100.00;101599.09;2615786;36;20038;-77
2021/09/23 12:15:09;;;;;;;5.35;2.35;;;;;;;18.65;100.00;101592.78;2615946;36;20045;-77
2021/09/23 12:17:37;;;;;;;5.90;2.08;;;;;;;18.64;100.00;101588.34;2615738;36;20041;-76
2021/09/23 12:20:06;;;;;;;5.50;1.88;;;;;;;18.59;100.00;101582.56;2615891;31;20034;-74
2021/09/23 12:22:35;;;;;;;;;;;;;;;18.41;100.00;101583.59;2616118;31;20588;-75
2021/09/23 12:25:16;;;;;;;8.07;1.90;;;;;;;18.46;100.00;101588.53;2616151;36;19998;-75
2021/09/23 12:27:46;;;;;;;7.68;2.00;;;;;;;18.37;100.00;101601.31;2616161;36;20078;-75
2021/09/23 12:41:39;;;;;;;6.15;2.20;;;;;;;18.19;100.00;101583.22;2635630;36;20412;-76
2021/09/23 12:52:20;;;;;;;8.32;1.73;;;;;;;18.19;100.00;101583.22;2617681;36;20057;-74
2021/09/23 12:54:54;;;;;;;8.57;2.15;;;;;;;18.33;100.00;101583.56;2619552;36;20065;-75
2021/09/23 12:57:29;;;;;;;5.20;1.92;;;;;;;18.26;100.00;101582.59;2619698;36;20034;-74
2021/09/23 13:00:10;;;;;;;6.88;2.10;;;;;;;18.32;100.00;101577.28;2618964;36;20060;-77
2021/09/23 13:02:38;;;;;;;10.07;1.75;;;;;;;18.20;100.00;101584.09;2617694;36;20041;-73
2021/09/23 13:05:10;;;;;;;9.95;2.55;;;;;;;18.24;100.00;101576.44;2616859;36;20092;-75
2021/09/23 13:07:46;;;;;;;6.38;1.90;;;;;;;18.20;100.00;101584.09;2619795;36;20434;-73
2021/09/23 13:10:17;;;;;;;8.20;2.42;;;;;;;18.35;100.00;101592.47;2619295;36;20034;-74
2021/09/23 13:12:50;;;;;;;7.22;2.40;;;;;;;18.27;100.00;101573.38;2619674;36;20054;-75
2021/09/23 13:15:27;;;;;;;10.43;2.45;;;;;;;17.96;100.00;101563.13;2620294;36;20495;-75
2021/09/23 13:18:14;;;;;;;7.32;2.25;;;;;;;18.08;100.00;101559.06;2619202;36;20099;-74
2021/09/23 13:20:44;;;;;;;10.75;2.97;;;;;;;17.98;100.00;101564.66;2619550;36;20046;-75
2021/09/23 13:23:17;;;;;;;5.55;2.20;;;;;;;17.94;100.00;101562.44;2618374;54;20030;-75
2021/09/23 13:25:46;;;;;;;5.28;2.17;;;;;;;18.03;100.00;101564.16;2619712;36;20903;-74
2021/09/23 13:28:24;;;;;;;10.35;2.28;;;;;;;18.25;100.00;101565.34;2619589;36;20555;-74
2021/09/23 13:30:53;;;;;;;8.30;2.83;;;;;;;18.45;100.00;101559.59;2620187;36;20435;-74
2021/09/23 13:33:23;;;;;;;4.00;1.95;;;;;;;18.49;100.00;101566.38;2619485;36;20038;-74
2021/09/23 13:35:53;;;;;;;7.72;2.30;;;;;;;18.53;100.00;101568.59;2619681;36;20072;-74
2021/09/23 13:38:23;;;;;;;9.50;2.35;;;;;;;18.52;100.00;101564.19;2620018;36;20416;-76
2021/09/23 13:40:52;;;;;;;8.73;2.30;;;;;;;18.61;100.00;101564.16;2619752;36;20034;-74
2021/09/23 13:43:23;;;;;;;7.75;2.67;;;;;;;18.51;100.00;101559.75;2619222;36;20107;-74
2021/09/23 13:45:51;;;;;;;8.55;2.25;;;;;;;18.52;100.00;101568.75;2619690;36;20065;-74
2021/09/23 13:48:20;;;;;;;5.45;2.10;;;;;;;18.54;100.00;101570.31;2619044;36;20056;-76
2021/09/23 13:50:50;;;;;;;8.23;2.17;;;;;;;18.79;100.00;101570.28;2619103;31;20579;-75
2021/09/23 13:53:18;;;;;;;5.70;2.17;;;;;;;18.75;100.00;101571.63;2615448;36;20056;-77
2021/09/23 13:55:46;;;;;;;7.00;2.35;;;;;;;18.80;100.00;101573.84;2615869;36;20038;-75
2021/09/23 14:00:45;;;;;;;7.80;2.38;;;;;;;18.85;100.00;101569.56;2614117;36;20275;-76
2021/09/23 14:03:13;;;;;;;9.77;2.60;;;;;;;18.83;100.00;101582.56;2615230;36;20038;-76
2021/09/23 14:05:42;;;;;;;7.13;1.75;;;;;;;18.90;100.00;101567.22;2614733;36;20800;-76
2021/09/23 14:08:10;;;;;;;5.75;1.95;;;;;;;19.06;100.00;101562.75;2615745;36;20034;-74
2021/09/23 14:10:38;;;;;;;8.15;1.90;;;;;;;18.96;100.00;101564.81;2616380;31;20559;-76
2021/09/23 14:13:06;;;;;;;7.80;2.03;;;;;;;18.97;100.00;101574.72;2615543;31;20038;-74
2021/09/23 14:15:35;;;;;;;4.75;1.80;;;;;;;18.78;100.00;101571.28;2615443;36;20545;-75
2021/09/23 14:18:06;;;;;;;4.93;1.90;;;;;;;18.74;100.00;101578.13;2617336;31;20452;-75
2021/09/23 14:20:34;;;;;;;4.35;1.77;;;;;;;18.65;100.00;101568.25;2618079;36;20136;-76
2021/09/23 14:23:02;;;;;;;7.47;1.88;;;;;;;18.63;100.00;101573.88;2616278;36;20078;-75
2021/09/23 14:25:31;;;;;;;3.73;1.70;;;;;;;18.65;100.00;101582.72;2616557;31;20544;-74
2021/09/23 14:28:01;;;;;;;5.72;1.92;;;;;;;18.71;100.00;101581.19;2615709;36;20040;-74
2021/09/23 14:30:29;;;;;;;3.25;1.42;;;;;;;18.92;100.00;101591.59;2615698;36;20030;-74
2021/09/23 14:32:58;;;;;;;8.35;2.00;;;;;;;19.25;100.00;101595.06;2614638;47;20048;-76
2021/09/23 14:35:29;;;;;;;7.50;2.08;;;;;;;19.34;100.00;101597.78;2615329;36;20023;-74
2021/09/23 14:37:58;;;;;;;6.82;1.98;;;;;;;19.33;100.00;101587.91;2616327;36;20087;-76
2021/09/23 14:40:28;;;;;;;7.15;1.75;;;;;;;19.03;100.00;101584.91;2615715;31;20056;-74
2021/09/23 14:42:56;;;;;;;4.30;1.70;;;;;;;18.70;100.00;101583.06;2615846;36;20031;-76
2021/09/23 14:45:51;;;;;;;7.65;2.03;;;;;;;18.50;100.00;101568.94;2617330;36;20034;-74
2021/09/23 14:48:19;;;;;;;6.53;1.90;;;;;;;18.33;100.00;101578.13;2615255;36;20575;-74
2021/09/23 14:50:50;;;;;;;6.33;1.87;;;;;;;18.07;100.00;101573.69;2616035;36;20400;-76
2021/09/23 14:53:19;;;;;;;4.53;1.98;;;;;;;18.13;100.00;101558.56;2615837;36;20319;-77
2021/09/23 14:55:47;;;;;;;7.87;2.20;;;;;;;17.99;100.00;101574.53;2615954;36;20034;-74
2021/09/23 14:58:15;;;;;;;6.18;1.83;;;;;;;18.04;100.00;101584.94;2615419;36;20303;-75
2021/09/23 15:00:43;;;;;;;5.13;1.90;;;;;;;17.94;100.00;101573.34;2615786;36;20049;-75
2021/09/23 15:03:12;;;;;;;5.43;2.00;;;;;;;17.80;100.00;101570.22;2614927;36;20420;-75
2021/09/23 15:05:46;;;;;;;7.20;2.20;;;;;;;17.72;100.00;101572.91;2615959;36;20034;-74
2021/09/23 15:08:19;;;;;;;4.40;1.90;;;;;;;17.74;100.00;101581.78;2612840;31;20061;-74
2021/09/23 15:10:47;;;;;;;5.35;2.33;;;;;;;17.58;100.00;101562.63;2616163;36;20038;-75
2021/09/23 15:13:16;;;;;;;7.90;2.00;;;;;;;17.60;100.00;101576.97;2615785;36;20088;-75
2021/09/23 15:15:44;;;;;;;6.07;2.20;;;;;;;17.47;100.00;101572.81;2615627;36;20079;-75
2021/09/23 15:18:15;;;;;;;10.48;2.65;;;;;;;17.41;100.00;101573.47;2615107;36;20064;-76
2021/09/23 15:20:43;;;;;;;4.60;2.20;;;;;;;17.36;100.00;101573.13;2615787;36;20031;-75
2021/09/23 15:23:13;;;;;;;4.40;2.53;;;;;;;17.40;100.00;101569.06;2616022;36;20048;-74
2021/09/23 15:25:43;;;;;;;;;;;;;;;17.51;100.00;101560.59;2616110;31;20477;-75
2021/09/23 15:28:11;;;;;;;8.75;2.20;;;;;;;17.50;100.00;101560.75;2615368;36;19950;-75
2021/09/23 15:33:20;;;;;;;8.32;2.78;;;;;;;17.39;100.00;101564.63;2614656;36;20311;-73
2021/09/23 15:35:48;;;;;;;6.00;2.47;;;;;;;17.32;100.00;101566.28;2615440;36;20050;-74
2021/09/23 15:38:17;;;;;;;3.87;2.00;;;;;;;17.25;100.00;101563.38;2613687;36;20034;-76
2021/09/23 15:40:48;;;;;;;7.93;2.50;;;;;;;17.24;100.00;101566.25;2613885;31;20065;-76
2021/09/23 15:43:16;;;;;;;4.82;2.10;;;;;;;17.18;100.00;101556.88;2612443;36;20337;-75
2021/09/23 15:45:53;;;;;;;5.53;2.47;;;;;;;17.07;100.00;101555.28;2614825;36;20098;-76
2021/09/23 15:48:22;;;;;;;3.95;2.55;;;;;;;17.19;100.00;101546.84;2614686;36;20122;-75
2021/09/23 15:50:59;;;;;;;8.52;2.65;;;;;;;17.20;100.00;101541.25;2615500;31;20080;-75
2021/09/23 15:53:28;;;;;;;9.77;2.70;;;;;;;17.17;100.00;101541.56;2615483;36;20396;-75
2021/09/23 15:55:58;;;;;;;6.27;2.73;;;;;;;17.14;100.00;101545.47;2615488;36;20068;-75
2021/09/23 15:58:27;;;;;;;5.90;2.55;;;;;;;17.13;100.00;101532.88;2615464;36;20362;-75
2021/09/23 16:00:55;;;;;;;7.60;2.45;;;;;;;17.08;100.00;101540.69;2615082;36;20630;-76
2021/09/23 16:03:23;;;;;;;7.50;2.37;;;;;;;17.06;100.00;101553.56;2614568;36;20082;-76
2021/09/23 16:05:52;;;;;;;6.27;2.33;;;;;;;17.15;100.00;101536.31;2615669;36;20307;-75
2021/09/23 16:08:20;;;;;;;8.40;2.33;;;;;;;17.08;100.00;101545.28;2615641;36;20053;-76
2021/09/23 16:10:51;;;;;;;4.70;2.60;;;;;;;17.04;100.00;101543.91;2615478;36;20031;-74
2021/09/23 16:13:28;;;;;;;4.95;2.33;;;;;;;17.04;100.00;101533.03;2632992;36;20088;-74
2021/09/23 16:16:08;;;;;;;8.20;2.10;;;;;;;17.05;100.00;101523.81;2615062;36;20552;-75
2021/09/23 16:22:33;;;;;;;6.80;2.13;;;;;;;17.16;100.00;101520.81;2613472;36;20035;-75
2021/09/23 16:28:05;;;;;;;7.70;2.40;;;;;;;17.07;100.00;101527.25;2614223;36;20082;-75
2021/09/23 16:30:36;;;;;;;5.63;1.98;;;;;;;16.98;100.00;101521.75;2615419;36;20035;-75
2021/09/23 16:33:07;;;;;;;6.72;2.35;;;;;;;17.00;100.00;101516.16;2614604;36;21404;-74
2021/09/23 16:35:39;;;;;;;9.05;2.60;;;;;;;16.95;100.00;101508.50;2616023;36;20042;-76
2021/09/23 16:38:08;;;;;;;5.38;2.42;;;;;;;16.97;100.00;101521.91;2615083;36;20022;-75
2021/09/23 16:40:47;;;;;;;7.18;2.15;;;;;;;16.98;100.00;101523.63;2615000;54;20038;-74
2021/09/23 16:43:21;;;;;;;7.03;2.58;;;;;;;16.94;100.00;101517.66;2615249;36;20042;-74
2021/09/23 16:49:10;;;;;;;11.48;2.40;;;;;;;16.95;100.00;101519.38;2632505;36;20038;-74
2021/09/23 16:51:42;;;;;;;7.93;2.55;;;;;;;16.88;100.00;101517.47;2615199;36;20030;-74
2021/09/23 16:54:10;;;;;;;10.88;3.00;;;;;;;16.89;100.00;101519.19;2614803;36;20031;-74
2021/09/23 16:56:39;;;;;;;8.77;2.50;;;;;;;16.90;100.00;101518.16;2615090;36;20042;-74
2021/09/23 16:59:08;;;;;;;7.00;3.08;;;;;;;16.89;100.00;101521.91;2633334;36;20034;-75
2021/09/23 17:01:47;;;;;;;6.68;2.92;;;;;;;16.84;100.00;101516.88;2633689;36;20057;-76
2021/09/23 17:04:35;;;;;;;10.38;3.50;;;;;;;16.85;100.00;101517.75;2632812;36;20031;-76
2021/09/23 17:07:03;;;;;;;10.18;3.00;;;;;;;16.84;100.00;101516.03;2614704;36;20034;-75
2021/09/23 17:09:32;;;;;;;10.60;3.08;;;;;;;16.87;100.00;101515.72;2615371;36;20083;-76
2021/09/23 17:12:11;;;;;;;9.98;2.90;;;;;;;16.84;100.00;101521.47;2615202;36;20061;-76
2021/09/23 17:14:39;;;;;;;9.05;2.95;;;;;;;16.84;100.00;101519.59;2614461;36;20037;-74
2021/09/23 17:17:20;;;;;;;6.90;2.67;;;;;;;16.85;100.00;101512.31;2614916;36;20439;-75
2021/09/23 17:19:48;;;;;;;9.85;3.38;;;;;;;16.78;100.00;101515.69;2614906;36;20058;-75
2021/09/23 17:31:10;;;;;;;8.35;3.00;;;;;;;16.69;100.00;101527.50;2631637;36;20057;-75
2021/09/23 17:37:21;;;;;;;11.13;4.10;;;;;;;16.60;100.00;101555.66;2650320;36;20042;-75
2021/09/23 17:39:50;;;;;;;9.20;4.55;;;;;;;16.58;100.00;101560.41;2615032;36;20660;-75
2021/09/23 17:42:18;;;;;;;10.23;4.53;;;;;;;16.51;100.00;101564.75;2616017;31;20518;-74
2021/09/23 17:44:54;;;;;;;16.52;4.70;;;;;;;16.48;100.00;101570.50;2615812;36;20083;-75
2021/09/23 17:47:24;;;;;;;15.13;5.55;;;;;;;16.51;100.00;101575.63;2615156;36;20030;-75
2021/09/23 17:49:52;;;;;;;8.90;5.38;;;;;;;16.47;100.00;101580.50;2615966;36;20090;-74
2021/09/23 17:55:39;;;;;;;11.23;3.67;;;;;;;16.28;100.00;101586.97;2616185;36;20035;-73
2021/09/23 18:00:35;;;;;;;10.05;3.42;;;;;;;16.20;100.00;101587.75;2614808;36;20471;-73
2021/09/23 18:03:17;;;;;;;14.23;3.60;;;;;;;16.08;100.00;101584.41;2615107;36;20125;-74
2021/09/23 18:06:14;;;;;;;9.55;3.53;;;;;;;16.09;100.00;101582.53;2615137;36;20042;-75
2021/09/23 18:09:16;;;;;;;10.15;3.55;;;;;;;16.07;100.00;101595.44;2615702;36;20035;-74
2021/09/23 18:12:22;;;;;;;10.95;3.20;;;;;;;16.03;100.00;101589.47;2615004;54;20658;-76
2021/09/23 18:18:01;;;;;;;12.88;3.53;;;;;;;15.93;100.00;101594.97;2614019;36;20093;-75
2021/09/23 18:20:32;;;;;;;8.87;2.60;;;;;;;15.95;100.00;101597.50;2614914;36;20100;-74
2021/09/23 18:23:01;;;;;;;9.95;3.83;;;;;;;15.94;100.00;101598.50;2615872;36;20379;-74
2021/09/23 18:25:29;;;;;;;12.52;3.00;;;;;;;15.97;100.00;101595.50;2615522;36;20042;-73
2021/09/23 18:28:01;;;;;;;12.27;3.50;;;;;;;15.95;100.00;101597.50;2615505;36;20031;-75
2021/09/23 18:30:30;;;;;;;14.48;4.97;;;;;;;15.95;100.00;101597.50;2615556;36;20037;-74
2021/09/23 18:32:58;;;;;;;13.05;3.92;;;;;;;15.93;100.00;101610.41;2615208;36;20030;-76
2021/09/23 18:35:26;;;;;;;12.80;3.15;;;;;;;15.96;100.00;101604.66;2615935;36;20453;-74
2021/09/23 18:37:55;;;;;;;12.93;3.00;;;;;;;15.98;100.00;101607.22;2615433;36;20037;-79
2021/09/23 18:40:23;;;;;;;13.63;3.17;;;;;;;15.96;100.00;101615.53;2614753;36;20034;-74
2021/09/23 18:42:52;;;;;;;13.63;2.88;;;;;;;15.87;100.00;101619.13;2615482;36;20091;-75
2021/09/23 18:48:33;;;;;;;10.50;2.20;;;;;;;15.74;100.00;101622.19;2632646;36;20802;-74
2021/09/23 18:51:04;;;;;;;12.23;2.67;;;;;;;15.70;100.00;101634.34;2616145;36;20432;-76
2021/09/23 18:53:32;;;;;;;10.13;2.25;;;;;;;15.72;100.00;101635.91;2615229;36;20055;-75
2021/09/23 18:56:01;;;;;;;8.98;2.47;;;;;;;15.73;100.00;101642.19;2615274;36;20034;-74
2021/09/23 18:58:30;;;;;;;12.60;3.38;;;;;;;15.75;100.00;101641.03;2615275;36;20038;-74
2021/09/23 19:00:59;;;;;;;13.43;4.07;;;;;;;15.75;100.00;101651.91;2615340;36;20038;-77
2021/09/23 19:03:27;;;;;;;14.55;6.47;;;;;;;15.70;100.00;101658.78;2614968;36;20330;-75
2021/09/23 19:05:58;;;;;;;12.45;4.57;;;;;;;15.66;100.00;101660.06;2615323;36;20069;-76
2021/09/23 19:08:26;;;;;;;10.65;4.03;;;;;;;15.66;100.00;101663.63;2615749;36;20038;-74
2021/09/23 19:10:55;;;;;;;11.37;2.83;;;;;;;15.65;100.00;101661.94;2615519;36;20034;-74
2021/09/23 19:13:23;;;;;;;9.75;2.42;;;;;;;15.67;100.00;101665.34;2615432;36;20056;-75
2021/09/23 19:15:52;;;;;;;6.97;2.23;;;;;;;15.64;100.00;101665.66;2615557;36;20062;-75
2021/09/23 19:18:20;;;;;;;6.90;2.13;;;;;;;15.63;100.00;101679.38;2614509;36;20572;-75
2021/09/23 19:20:49;;;;;;;6.20;2.13;;;;;;;15.82;100.00;101673.03;2615597;36;20030;-75
2021/09/23 19:23:20;;;;;;;8.25;4.85;;;;;;;15.76;100.00;101675.31;2614912;36;20030;-75
2021/09/23 19:25:48;;;;;;;7.82;3.05;;;;;;;15.76;100.00;101675.31;2615724;36;20031;-75
2021/09/23 19:28:17;;;;;;;9.23;2.50;;;;;;;15.68;100.00;101680.63;2614757;36;20038;-77
2021/09/23 19:30:46;;;;;;;7.30;2.17;;;;;;;15.60;100.00;101669.66;2614934;36;20086;-75
2021/09/23 19:33:15;;;;;;;9.30;2.10;;;;;;;15.59;100.00;101676.09;2614220;36;20030;-77
2021/09/23 19:35:44;;;;;;;9.45;2.40;;;;;;;15.63;100.00;101669.38;2615451;36;20409;-77
2021/09/23 19:38:12;;;;;;;13.97;2.33;;;;;;;15.57;100.00;101672.69;2615160;36;20039;-75
2021/09/23 19:40:43;;;;;;;9.10;2.33;;;;;;;15.54;100.00;101670.28;2615415;31;20758;-76
2021/09/23 19:43:12;;;;;;;10.02;2.95;;;;;;;15.51;100.00;101671.41;2614574;36;20064;-76
2021/09/23 19:48:22;;;;;;;6.32;1.92;;;;;;;15.52;100.00;101672.28;2614055;36;20041;-75
2021/09/23 19:56:20;;;;;;;9.52;2.67;;;;;;;15.41;100.00;101671.47;2614758;36;20038;-75
2021/09/23 19:58:49;;;;;;;7.38;2.95;;;;;;;15.38;100.00;101682.59;2615066;36;20042;-77
2021/09/23 20:01:19;;;;;;;10.57;2.90;;;;;;;15.42;100.00;101684.00;2614656;36;20038;-75
2021/09/23 20:03:49;;;;;;;4.82;2.20;;;;;;;15.36;100.00;101679.19;2614953;36;20061;-75
2021/09/23 20:09:05;;;;;;;9.80;2.58;;;;;;;15.38;100.00;101682.59;2617371;36;20042;-74
2021/09/23 20:11:45;;;;;;;7.28;1.92;;;;;;;15.45;100.00;101676.59;2615286;36;20042;-75
2021/09/23 20:16:56;;;;;;;7.07;1.80;;;;;;;15.32;100.00;101680.47;2615253;36;20404;-76
2021/09/23 20:22:06;;;;;;;7.22;1.80;;;;;;;15.34;100.00;101678.47;2614904;36;20055;-75
2021/09/23 20:24:35;;;;;;;10.55;2.15;;;;;;;15.37;100.00;101688.16;2615162;36;20035;-76
2021/09/23 20:27:06;;;;;;;11.85;2.17;;;;;;;15.36;100.00;101676.47;2614777;31;20099;-77
2021/09/23 20:29:35;;;;;;;8.55;2.10;;;;;;;15.38;100.00;101681.75;2614772;36;20057;-75
2021/09/23 20:32:03;;;;;;;5.38;2.00;;;;;;;15.33;100.00;101686.78;2615014;36;20030;-77
2021/09/23 20:34:38;;;;;;;6.93;2.50;;;;;;;15.33;100.00;101684.91;2615049;36;20061;-76
2021/09/23 20:37:07;;;;;;;9.45;2.60;;;;;;;15.38;100.00;101682.59;2615568;36;20035;-74
2021/09/23 20:39:35;;;;;;;7.57;2.00;;;;;;;15.30;100.00;101684.34;2615635;36;20555;-74
2021/09/23 20:42:07;;;;;;;7.55;2.50;;;;;;;15.39;100.00;101686.16;2614922;36;20034;-79
2021/09/23 20:44:35;;;;;;;7.55;1.95;;;;;;;15.34;100.00;101683.91;2615898;31;20484;-76
2021/09/23 20:47:04;;;;;;;7.78;2.20;;;;;;;15.36;100.00;101681.06;2614230;36;20034;-75